Time;durP1;ratioP1;P1;durP2;ratioP2;P2;SDS_P1;SDS_P2;PMS_P1;PMS_P2;Temp;Humidity;BMP_temperature;BMP_pressure;BME280_temperature;BME280_humidity;BME280_pressure;Samples;Min_cycle;Max_cycle;Signal;HPM_P1;HPM_P2
2022/04/08 00:02:17;;;;;;;9.48;4.72;;;12.50;49.50;;;;;;5049221;28;20025;-79
2022/04/08 00:04:44;;;;;;;;;;;12.40;49.70;;;;;;5069865;28;20115;-76
2022/04/08 00:07:10;;;;;;;6.97;4.43;;;12.40;49.10;;;;;;5070351;28;19921;-79
2022/04/08 00:09:36;;;;;;;9.52;4.78;;;12.40;49.70;;;;;;5069323;28;20721;-79
2022/04/08 00:12:03;;;;;;;9.65;5.07;;;12.40;49.80;;;;;;5070131;28;20048;-79
2022/04/08 00:14:29;;;;;;;11.27;5.47;;;12.40;49.30;;;;;;5070578;28;20032;-76
2022/04/08 00:16:55;;;;;;;;;;;12.30;49.90;;;;;;5069549;28;20056;-79
2022/04/08 00:19:21;;;;;;;10.15;5.18;;;12.40;49.20;;;;;;5069256;28;19924;-77
2022/04/08 00:21:48;;;;;;;10.30;4.75;;;12.30;49.70;;;;;;5051858;28;20037;-76
2022/04/08 00:24:17;;;;;;;10.93;5.68;;;12.30;49.90;;;;;;5069358;28;20074;-79
2022/04/08 00:26:46;;;;;;;8.75;5.15;;;12.30;50.30;;;;;;5068675;28;20040;-78
2022/04/08 00:29:31;;;;;;;9.95;4.88;;;12.20;50.10;;;;;;5053123;28;20040;-76
2022/04/08 00:34:41;;;;;;;8.50;4.00;;;12.20;50.50;;;;;;5070064;28;20086;-79
2022/04/08 00:37:09;;;;;;;8.75;3.95;;;12.20;50.60;;;;;;5068515;28;20393;-78
2022/04/08 00:39:35;;;;;;;8.18;3.63;;;12.20;50.80;;;;;;5052323;28;20086;-79
2022/04/08 00:42:01;;;;;;;;;;;12.10;51.00;;;;;;5069000;28;20474;-77
2022/04/08 00:44:29;;;;;;;8.43;3.80;;;12.10;50.30;;;;;;5069143;28;19958;-78
2022/04/08 00:46:55;;;;;;;7.20;3.60;;;12.10;50.80;;;;;;5069066;28;20034;-77
2022/04/08 00:49:21;;;;;;;7.13;3.67;;;12.10;51.00;;;;;;5052253;28;20214;-79
2022/04/08 00:51:47;;;;;;;9.07;3.63;;;12.10;51.20;;;;;;5068167;28;20116;-79
2022/04/08 00:54:14;;;;;;;8.82;4.63;;;12.00;51.20;;;;;;5052359;28;20056;-79
2022/04/08 00:56:40;;;;;;;;;;;12.10;51.30;;;;;;5068844;28;20033;-79
2022/04/08 00:59:07;;;;;;;7.25;3.40;;;12.00;49.90;;;;;;5052483;28;19970;-79
2022/04/08 01:01:33;;;;;;;6.55;3.20;;;12.00;51.10;;;;;;5069297;28;20127;-77
2022/04/08 01:03:59;;;;;;;9.00;3.15;;;12.00;51.20;;;;;;5049301;28;20037;-79
2022/04/08 01:06:26;;;;;;;;;;;12.00;51.20;;;;;;5052907;28;20482;-79
2022/04/08 01:08:53;;;;;;;5.60;2.88;;;12.00;50.70;;;;;;5052850;28;19917;-77
2022/04/08 01:11:20;;;;;;;7.93;3.53;;;11.90;51.50;;;;;;5052892;28;20371;-77
2022/04/08 01:13:46;;;;;;;10.40;3.83;;;11.90;51.80;;;;;;5053046;28;20119;-76
2022/04/08 01:16:12;;;;;;;11.20;3.90;;;11.90;51.80;;;;;;5047773;28;20266;-76
2022/04/08 01:18:39;;;;;;;;;;;11.90;51.20;;;;;;5054253;28;20087;-79
2022/04/08 01:21:06;;;;;;;8.20;3.00;;;11.90;51.10;;;;;;5051786;28;19966;-79
2022/04/08 01:23:52;;;;;;;9.15;2.80;;;11.90;51.60;;;;;;5053673;28;20104;-79
2022/04/08 01:26:18;;;;;;;6.45;2.33;;;11.90;52.10;;;;;;5052409;28;20067;-77
2022/04/08 01:28:45;;;;;;;11.60;2.33;;;11.80;52.50;;;;;;5052356;28;20143;-76
2022/04/08 01:31:12;;;;;;;9.25;2.50;;;11.80;52.50;;;;;;5053363;28;20045;-77
2022/04/08 01:33:38;;;;;;;7.88;2.88;;;11.90;52.70;;;;;;5051990;28;20044;-79
2022/04/08 01:36:04;;;;;;;6.18;2.13;;;11.80;52.70;;;;;;5051556;28;20041;-76
2022/04/08 01:38:30;;;;;;;;;;;11.80;52.90;;;;;;5053090;28;20382;-79
2022/04/08 01:40:57;;;;;;;5.70;2.00;;;11.80;52.20;;;;;;5051944;28;19932;-77
2022/04/08 01:43:23;;;;;;;5.80;2.40;;;11.80;52.80;;;;;;5035173;28;20533;-79
2022/04/08 01:45:49;;;;;;;7.05;2.67;;;11.80;52.90;;;;;;5052581;28;20061;-79
2022/04/08 01:48:15;;;;;;;8.35;2.90;;;11.70;53.20;;;;;;5053431;28;20120;-76
2022/04/08 01:50:41;;;;;;;;;;;11.70;52.80;;;;;;5052123;28;20064;-79
2022/04/08 01:53:08;;;;;;;7.75;2.42;;;11.70;52.60;;;;;;5053481;28;19924;-79
2022/04/08 01:55:34;;;;;;;5.47;2.00;;;11.70;53.50;;;;;;5034367;28;20485;-77
2022/04/08 01:58:02;;;;;;;6.72;2.10;;;11.70;53.90;;;;;;5053050;28;20079;-77
2022/04/08 02:00:49;;;;;;;8.52;2.20;;;11.70;54.10;;;;;;5044108;28;20049;-79
2022/04/08 02:03:20;;;;;;;11.32;2.58;;;11.70;54.40;;;;;;5072936;28;20520;-79
2022/04/08 02:05:46;;;;;;;8.70;1.90;;;11.80;54.40;;;;;;5071088;28;20033;-76
2022/04/08 02:08:13;;;;;;;7.78;2.17;;;11.70;54.30;;;;;;5072399;28;20534;-79
2022/04/08 02:10:39;;;;;;;4.93;2.00;;;11.70;54.80;;;;;;5070806;28;20041;-77
2022/04/08 02:13:06;;;;;;;6.10;2.20;;;11.70;54.60;;;;;;5051597;28;20133;-78
2022/04/08 02:15:34;;;;;;;6.30;2.35;;;11.60;53.90;;;;;;5059490;28;20078;-77
2022/04/08 02:18:19;;;;;;;6.55;2.03;;;11.60;54.50;;;;;;5069691;28;20053;-79
2022/04/08 02:20:45;;;;;;;8.30;2.65;;;11.60;54.90;;;;;;5072369;28;20444;-77
2022/04/08 02:23:12;;;;;;;9.52;1.88;;;11.60;54.90;;;;;;5071833;28;20028;-79
2022/04/08 02:25:38;;;;;;;;;;;11.60;54.50;;;;;;5071112;28;20048;-79
2022/04/08 02:28:04;;;;;;;5.97;1.88;;;11.60;54.60;;;;;;5070420;28;19920;-77
2022/04/08 02:30:30;;;;;;;6.00;1.75;;;11.70;55.20;;;;;;5087608;28;20041;-77
2022/04/08 02:32:57;;;;;;;7.25;1.90;;;11.70;55.50;;;;;;5059857;28;20489;-77
2022/04/08 02:35:23;;;;;;;7.28;1.80;;;11.80;55.00;;;;;;5050489;28;20025;-79
2022/04/08 02:37:49;;;;;;;;;;;11.80;55.00;;;;;;5052201;28;20055;-76
2022/04/08 02:40:16;;;;;;;3.65;1.73;;;11.80;54.50;;;;;;5033575;28;19924;-79
2022/04/08 02:42:42;;;;;;;5.65;1.95;;;11.80;54.80;;;;;;5050637;28;20132;-79
2022/04/08 02:45:08;;;;;;;5.18;1.60;;;11.80;54.70;;;;;;5051618;28;20041;-77
2022/04/08 02:47:53;;;;;;;7.35;2.00;;;11.80;54.40;;;;;;5050376;28;20032;-78
2022/04/08 02:50:20;;;;;;;4.43;1.83;;;11.80;55.30;;;;;;5034345;28;20029;-78
2022/04/08 02:52:46;;;;;;;;;;;11.80;55.50;;;;;;5051580;28;20122;-77
2022/04/08 02:55:12;;;;;;;5.43;1.63;;;11.90;55.40;;;;;;5051009;28;19921;-77
2022/04/08 02:57:57;;;;;;;;;;;11.90;54.80;;;;;;5053549;28;20033;-77
2022/04/08 03:00:23;;;;;;;3.88;1.70;;;12.00;54.70;;;;;;5053972;28;19923;-78
2022/04/08 03:02:50;;;;;;;7.00;2.28;;;11.90;56.20;;;;;;5053424;28;20473;-79
2022/04/08 03:05:16;;;;;;;6.93;2.13;;;12.10;56.10;;;;;;5052548;28;20033;-79
2022/04/08 03:07:43;;;;;;;4.90;1.83;;;12.10;55.30;;;;;;5053295;28;20072;-77
2022/04/08 03:10:10;;;;;;;4.93;1.98;;;12.10;55.70;;;;;;5053749;28;20032;-77
2022/04/08 03:12:37;;;;;;;4.97;1.88;;;12.10;55.70;;;;;;5053266;28;20549;-77
2022/04/08 03:15:04;;;;;;;;;;;12.10;55.60;;;;;;5054571;28;20040;-77
2022/04/08 03:17:31;;;;;;;7.30;1.95;;;12.10;55.30;;;;;;5052721;28;19920;-77
2022/04/08 03:19:58;;;;;;;5.22;1.70;;;12.10;55.70;;;;;;5052220;28;20041;-80
2022/04/08 03:22:24;;;;;;;4.35;1.77;;;12.10;55.40;;;;;;5030154;28;20567;-77
2022/04/08 03:24:51;;;;;;;4.88;1.73;;;12.00;56.10;;;;;;5063236;28;20086;-78
2022/04/08 03:27:18;;;;;;;5.50;2.05;;;12.00;55.90;;;;;;5066839;28;20090;-77
2022/04/08 03:29:45;;;;;;;7.40;1.90;;;12.10;56.40;;;;;;5070004;28;20045;-79
2022/04/08 03:32:12;;;;;;;4.85;2.10;;;12.10;56.60;;;;;;5053283;28;20063;-77
2022/04/08 03:34:38;;;;;;;8.20;2.28;;;12.10;56.60;;;;;;5069766;28;20043;-79
2022/04/08 03:37:05;;;;;;;;;;;12.10;56.50;;;;;;5070956;28;20037;-79
2022/04/08 03:39:32;;;;;;;10.25;2.33;;;12.00;55.80;;;;;;5066213;28;19916;-79
2022/04/08 03:41:58;;;;;;;6.20;1.83;;;12.00;56.20;;;;;;5049569;28;20037;-79
2022/04/08 03:44:24;;;;;;;5.38;1.80;;;12.00;56.50;;;;;;5050446;28;20025;-77
2022/04/08 03:46:50;;;;;;;8.55;2.63;;;11.90;56.40;;;;;;5049297;28;20091;-79
2022/04/08 03:49:17;;;;;;;5.47;1.70;;;11.90;56.80;;;;;;5049682;28;20555;-79
2022/04/08 03:51:45;;;;;;;6.13;1.63;;;11.80;56.40;;;;;;5049234;28;20029;-79
2022/04/08 03:54:12;;;;;;;7.25;2.10;;;11.80;56.90;;;;;;5049586;28;20029;-79
2022/04/08 03:56:43;;;;;;;8.10;2.70;;;11.80;57.20;;;;;;5062229;28;20029;-79
2022/04/08 03:59:10;;;;;;;4.80;1.90;;;11.80;57.20;;;;;;5049844;28;20116;-80
2022/04/08 04:01:37;;;;;;;5.05;2.03;;;11.80;57.40;;;;;;5063012;28;20045;-79
2022/04/08 04:04:04;;;;;;;6.60;1.92;;;11.90;57.40;;;;;;5069387;28;20028;-79
2022/04/08 04:06:30;;;;;;;5.65;2.47;;;11.90;56.90;;;;;;5049078;28;20041;-80
2022/04/08 04:08:57;;;;;;;7.40;2.30;;;11.90;56.90;;;;;;5066359;28;20079;-79
2022/04/08 04:11:23;;;;;;;4.47;1.45;;;11.90;57.40;;;;;;5069158;28;20100;-79
2022/04/08 04:13:49;;;;;;;14.38;2.72;;;11.90;57.40;;;;;;5069195;28;20033;-79
2022/04/08 04:16:15;;;;;;;9.82;2.00;;;12.00;58.50;;;;;;5069188;28;20067;-78
2022/04/08 04:18:41;;;;;;;5.28;1.63;;;12.00;57.70;;;;;;5069375;28;20060;-77
2022/04/08 04:21:08;;;;;;;6.57;1.88;;;12.10;57.80;;;;;;5069742;28;20069;-79
2022/04/08 04:23:34;;;;;;;6.03;1.65;;;12.20;57.90;;;;;;5052941;28;20036;-77
2022/04/08 04:26:03;;;;;;;6.30;2.30;;;12.30;58.60;;;;;;5068604;28;20452;-78
2022/04/08 04:28:49;;;;;;;4.82;1.80;;;12.30;57.70;;;;;;5064664;28;20055;-77
2022/04/08 04:31:15;;;;;;;5.90;1.70;;;12.30;57.90;;;;;;5066319;28;20572;-78
2022/04/08 04:33:41;;;;;;;8.07;2.35;;;12.30;57.90;;;;;;5052733;28;20033;-78
2022/04/08 04:36:07;;;;;;;7.90;2.30;;;12.30;57.80;;;;;;5068498;28;20445;-78
2022/04/08 04:38:33;;;;;;;4.70;1.88;;;12.30;57.80;;;;;;5068628;28;20056;-76
2022/04/08 04:41:00;;;;;;;4.72;1.63;;;12.30;57.80;;;;;;5069625;28;20186;-77
2022/04/08 04:43:26;;;;;;;7.05;1.88;;;12.40;58.00;;;;;;5052148;28;20037;-77
2022/04/08 04:45:52;;;;;;;5.22;2.05;;;12.40;57.90;;;;;;5068253;28;20064;-77
2022/04/08 04:48:18;;;;;;;9.45;2.63;;;12.40;57.80;;;;;;5052007;28;20515;-77
2022/04/08 04:50:46;;;;;;;6.45;1.85;;;12.40;57.80;;;;;;5070292;28;20029;-79
2022/04/08 04:53:13;;;;;;;4.90;2.05;;;12.40;57.30;;;;;;5052433;28;20123;-79
2022/04/08 04:55:39;;;;;;;5.65;1.80;;;12.40;57.90;;;;;;5051521;28;20313;-79
2022/04/08 04:58:05;;;;;;;7.88;2.00;;;12.40;57.80;;;;;;5051790;28;20037;-77
2022/04/08 05:00:31;;;;;;;;;;;12.50;57.70;;;;;;5051825;28;20513;-79
2022/04/08 05:02:58;;;;;;;11.02;2.78;;;12.50;57.40;;;;;;5070491;28;19954;-79
2022/04/08 05:05:24;;;;;;;12.75;3.90;;;12.50;57.50;;;;;;5069835;28;20088;-79
2022/04/08 05:07:50;;;;;;;10.10;4.10;;;12.50;57.50;;;;;;5051587;28;20033;-77
2022/04/08 05:10:16;;;;;;;11.88;4.15;;;12.50;57.60;;;;;;5068238;28;20527;-79
2022/04/08 05:12:43;;;;;;;10.45;3.65;;;12.50;57.70;;;;;;5070249;28;20059;-77
2022/04/08 05:15:11;;;;;;;8.15;2.63;;;12.50;57.80;;;;;;5067862;28;20051;-79
2022/04/08 05:17:38;;;;;;;10.13;2.70;;;12.50;57.30;;;;;;5069008;28;20055;-77
2022/04/08 05:20:06;;;;;;;6.72;1.90;;;12.50;57.40;;;;;;5051497;28;20044;-79
2022/04/08 05:22:52;;;;;;;5.45;2.33;;;12.60;57.90;;;;;;5069398;28;20049;-79
2022/04/08 05:25:19;;;;;;;8.35;3.10;;;12.60;57.90;;;;;;5068891;28;20067;-77
2022/04/08 05:27:45;;;;;;;;;;;12.70;57.20;;;;;;5068622;28;20041;-79
2022/04/08 05:30:16;;;;;;;10.45;2.42;;;12.70;57.30;;;;;;5064049;28;19912;-79
2022/04/08 05:32:43;;;;;;;6.40;2.15;;;12.70;57.30;;;;;;5049017;28;20068;-77
2022/04/08 05:35:09;;;;;;;10.07;3.05;;;12.70;57.30;;;;;;5048016;28;20379;-79
2022/04/08 05:37:55;;;;;;;8.85;3.00;;;12.80;56.80;;;;;;5058439;28;20049;-78
2022/04/08 05:40:21;;;;;;;10.18;3.17;;;12.80;57.30;;;;;;5047759;28;20374;-77
2022/04/08 05:43:08;;;;;;;6.35;3.10;;;12.90;57.20;;;;;;5048287;28;20041;-79
2022/04/08 05:45:34;;;;;;;7.78;2.20;;;12.90;57.10;;;;;;5047812;28;20036;-77
2022/04/08 05:48:19;;;;;;;7.63;3.25;;;13.00;57.00;;;;;;5048231;28;20033;-79
2022/04/08 05:50:45;;;;;;;8.25;2.78;;;13.10;56.90;;;;;;5050123;28;20079;-79
2022/04/08 05:53:11;;;;;;;10.10;2.60;;;13.20;56.60;;;;;;5051815;28;20037;-79
2022/04/08 05:55:38;;;;;;;9.80;2.72;;;13.20;56.40;;;;;;5045453;28;20370;-77
2022/04/08 05:58:04;;;;;;;7.25;2.22;;;13.30;56.50;;;;;;5051707;28;20076;-77
2022/04/08 06:00:34;;;;;;;5.82;2.28;;;13.30;55.60;;;;;;5052786;28;20069;-79
2022/04/08 06:03:00;;;;;;;7.38;2.13;;;13.40;56.00;;;;;;5053622;28;20030;-78
2022/04/08 06:05:26;;;;;;;;;;;13.50;55.90;;;;;;5052275;28;20053;-77
2022/04/08 06:07:54;;;;;;;9.90;2.47;;;13.50;55.70;;;;;;5068028;28;19947;-77
2022/04/08 06:10:23;;;;;;;6.13;2.20;;;13.60;55.40;;;;;;5051040;28;20056;-79
2022/04/08 06:12:51;;;;;;;9.77;2.72;;;13.60;55.50;;;;;;5031652;28;20041;-79
2022/04/08 06:15:18;;;;;;;5.22;1.98;;;13.70;55.60;;;;;;5017641;28;20421;-78
2022/04/08 06:17:45;;;;;;;8.10;2.20;;;13.70;55.30;;;;;;5052456;28;20072;-79
2022/04/08 06:20:17;;;;;;;6.97;2.65;;;13.80;55.00;;;;;;5051224;28;20053;-78
2022/04/08 06:22:46;;;;;;;9.88;3.00;;;13.90;54.90;;;;;;5071161;28;20094;-78
2022/04/08 06:25:16;;;;;;;10.10;2.72;;;14.00;55.00;;;;;;5054581;28;20029;-78
2022/04/08 06:27:46;;;;;;;8.30;2.90;;;14.10;55.00;;;;;;5054746;28;20033;-78
2022/04/08 06:32:59;;;;;;;11.57;2.50;;;14.30;54.30;;;;;;5071365;28;20128;-79
2022/04/08 06:35:25;;;;;;;9.35;2.28;;;14.60;54.40;;;;;;5071245;28;20036;-78
2022/04/08 06:38:17;;;;;;;9.70;1.85;;;14.70;53.30;;;;;;5070661;28;20050;-78
2022/04/08 06:40:44;;;;;;;7.53;1.92;;;14.80;53.20;;;;;;5070717;28;20036;-78
2022/04/08 06:43:10;;;;;;;;;;;14.90;52.90;;;;;;5072590;28;20553;-79
2022/04/08 06:45:37;;;;;;;4.32;1.45;;;15.10;52.30;;;;;;5071459;28;19916;-79
2022/04/08 06:48:03;;;;;;;;;;;15.20;52.30;;;;;;5070989;28;20070;-79
2022/04/08 06:50:30;;;;;;;6.17;1.80;;;15.30;52.10;;;;;;5071174;28;19913;-79
2022/04/08 06:53:00;;;;;;;5.10;2.00;;;15.50;51.60;;;;;;5070533;28;20469;-78
2022/04/08 06:55:46;;;;;;;6.32;2.13;;;15.70;51.60;;;;;;5070064;28;20497;-79
2022/04/08 06:58:12;;;;;;;5.90;2.05;;;15.90;51.30;;;;;;5070568;28;20101;-78
2022/04/08 07:00:39;;;;;;;;;;;16.00;50.80;;;;;;5070206;28;20041;-79
2022/04/08 07:03:05;;;;;;;6.65;1.70;;;16.20;50.80;;;;;;5070261;28;20388;-79
2022/04/08 07:05:31;;;;;;;;;;;16.40;50.30;;;;;;5054626;28;20035;-79
2022/04/08 07:07:58;;;;;;;6.13;1.63;;;16.50;50.20;;;;;;5053673;28;19924;-79
2022/04/08 07:10:25;;;;;;;5.80;1.45;;;16.50;49.60;;;;;;5069842;28;20559;-77
2022/04/08 07:12:51;;;;;;;;;;;16.70;49.50;;;;;;5054180;28;20040;-79
2022/04/08 07:15:17;;;;;;;4.65;1.40;;;16.80;49.50;;;;;;5069867;28;19917;-79
2022/04/08 07:17:43;;;;;;;8.27;1.98;;;16.80;47.80;;;;;;5054266;28;20032;-79
2022/04/08 07:20:11;;;;;;;5.05;1.42;;;16.90;47.90;;;;;;5052808;28;20572;-78
2022/04/08 07:22:37;;;;;;;5.20;1.85;;;17.10;47.60;;;;;;5069712;28;20086;-79
2022/04/08 07:25:03;;;;;;;;;;;17.10;47.60;;;;;;5072033;28;20086;-79
2022/04/08 07:27:29;;;;;;;4.57;1.50;;;17.30;47.40;;;;;;5071333;28;19912;-79
2022/04/08 07:29:56;;;;;;;5.25;1.70;;;17.60;46.80;;;;;;5071083;28;20075;-79
2022/04/08 07:32:22;;;;;;;;;;;17.80;46.60;;;;;;5070676;28;20040;-78
2022/04/08 07:40:38;;;;;;;3.67;1.02;;;18.10;44.60;;;;;;5072075;28;20055;-79
2022/04/08 07:43:05;;;;;;;4.40;1.48;;;18.10;43.70;;;;;;5072294;28;20051;-78
2022/04/08 07:45:31;;;;;;;6.32;1.30;;;18.20;43.90;;;;;;5069949;28;20029;-79
2022/04/08 07:47:59;;;;;;;;;;;18.50;44.30;;;;;;5053962;28;20469;-78
2022/04/08 07:50:27;;;;;;;4.40;1.50;;;18.80;43.60;;;;;;5069409;28;20003;-79
2022/04/08 07:52:53;;;;;;;6.68;1.60;;;19.20;42.30;;;;;;5068989;28;20574;-79
2022/04/08 07:58:05;;;;;;;6.47;1.40;;;20.00;41.00;;;;;;5069644;28;19927;-79
2022/04/08 08:00:32;;;;;;;4.68;1.30;;;20.60;40.30;;;;;;5068898;28;20036;-79
2022/04/08 08:02:58;;;;;;;3.90;1.63;;;21.00;38.90;;;;;;5070892;28;20032;-79
2022/04/08 08:05:26;;;;;;;3.85;1.10;;;21.40;37.80;;;;;;5052824;28;20067;-79
2022/04/08 08:07:56;;;;;;;4.28;1.10;;;21.80;37.00;;;;;;5069627;28;20097;-80
2022/04/08 08:10:41;;;;;;;4.55;1.30;;;22.10;36.60;;;;;;5068773;28;20036;-78
2022/04/08 08:13:07;;;;;;;4.25;1.08;;;22.40;35.10;;;;;;5069332;28;20048;-80
2022/04/08 08:15:36;;;;;;;5.22;1.42;;;22.40;34.70;;;;;;5068533;28;20025;-79
2022/04/08 08:18:05;;;;;;;3.85;1.10;;;22.00;34.40;;;;;;5069347;28;20505;-79
2022/04/08 08:20:31;;;;;;;3.97;1.00;;;21.70;35.50;;;;;;5069377;28;20036;-79
2022/04/08 08:22:57;;;;;;;6.47;1.33;;;21.30;35.70;;;;;;5069149;28;20114;-81
2022/04/08 08:25:24;;;;;;;;;;;20.90;36.20;;;;;;5068999;28;20041;-80
2022/04/08 08:28:08;;;;;;;6.22;1.20;;;20.60;36.20;;;;;;5085691;28;19931;-79
2022/04/08 08:30:37;;;;;;;3.38;1.00;;;20.30;37.00;;;;;;5048302;28;20030;-79
2022/04/08 08:33:05;;;;;;;2.97;0.80;;;20.20;36.70;;;;;;5048994;28;20044;-79
2022/04/08 08:35:32;;;;;;;3.47;1.55;;;20.00;37.20;;;;;;5032955;28;20021;-79
2022/04/08 08:38:00;;;;;;;3.65;1.10;;;19.80;38.10;;;;;;5032528;28;20556;-79
2022/04/08 08:43:33;;;;;;;3.03;1.00;;;19.90;37.90;;;;;;5049010;28;20071;-78
2022/04/08 08:46:22;;;;;;;7.43;1.20;;;20.20;37.40;;;;;;5031439;28;20029;-79
2022/04/08 08:48:50;;;;;;;6.90;1.70;;;20.20;37.60;;;;;;5048221;28;20075;-79
2022/04/08 08:51:18;;;;;;;7.85;1.25;;;20.20;38.50;;;;;;5048254;28;20068;-79
2022/04/08 08:53:44;;;;;;;4.93;1.17;;;20.00;38.20;;;;;;5049257;28;20371;-79
2022/04/08 08:56:10;;;;;;;;;;;19.90;38.30;;;;;;5032331;28;20033;-80
2022/04/08 08:58:37;;;;;;;5.50;1.50;;;19.70;38.40;;;;;;5048285;28;19970;-79
2022/04/08 09:01:09;;;;;;;4.18;1.25;;;19.60;39.20;;;;;;5047534;28;20043;-78
2022/04/08 09:03:35;;;;;;;4.28;1.40;;;19.70;38.80;;;;;;5049340;28;20445;-79
2022/04/08 09:06:21;;;;;;;;;;;19.70;38.80;;;;;;5050185;28;20029;-79
2022/04/08 09:08:58;;;;;;;5.13;1.33;;;19.60;38.40;;;;;;5049316;28;20329;-79
2022/04/08 09:11:43;;;;;;;4.90;1.55;;;19.60;39.40;;;;;;5047794;28;20041;-79
2022/04/08 09:14:09;;;;;;;8.55;1.45;;;19.80;38.90;;;;;;5066595;28;20166;-78
2022/04/08 09:17:12;;;;;;;;;;;20.00;38.40;;;;;;5068726;28;20098;-79
2022/04/08 09:19:38;;;;;;;4.78;1.65;;;20.10;38.00;;;;;;5068481;28;19920;-79
2022/04/08 09:22:04;;;;;;;;;;;20.10;38.20;;;;;;5068571;28;20100;-78
2022/04/08 09:24:31;;;;;;;11.35;1.50;;;20.30;37.90;;;;;;5051751;28;19916;-79
2022/04/08 09:26:57;;;;;;;;;;;20.20;37.80;;;;;;5074298;28;20031;-79
2022/04/08 09:29:24;;;;;;;5.97;1.17;;;20.10;37.50;;;;;;5072139;28;20321;-79
2022/04/08 09:32:12;;;;;;;4.38;1.40;;;19.90;37.40;;;;;;5051976;28;20049;-79
2022/04/08 09:34:41;;;;;;;2.95;0.90;;;19.60;38.10;;;;;;5035933;28;20057;-80
2022/04/08 09:37:12;;;;;;;3.72;1.30;;;19.50;38.00;;;;;;5060808;28;20044;-79
2022/04/08 09:40:11;;;;;;;4.65;1.50;;;19.30;38.60;;;;;;5052012;28;20438;-79
2022/04/08 09:42:56;;;;;;;4.95;1.10;;;19.30;38.40;;;;;;5057329;28;20101;-78
2022/04/08 09:45:41;;;;;;;18.00;1.45;;;19.30;38.60;;;;;;5072528;28;20041;-78
2022/04/08 09:48:08;;;;;;;5.50;1.20;;;19.30;38.70;;;;;;5073123;28;20393;-79
2022/04/08 09:50:37;;;;;;;7.68;1.58;;;19.30;38.20;;;;;;5072321;28;20029;-79
2022/04/08 09:53:05;;;;;;;5.60;1.30;;;19.30;38.50;;;;;;5052104;28;20041;-78
2022/04/08 09:55:34;;;;;;;2.67;1.00;;;19.40;38.70;;;;;;5080931;28;20079;-79
2022/04/08 09:58:05;;;;;;;3.70;1.00;;;19.50;38.90;;;;;;5051820;28;20116;-79
2022/04/08 10:00:32;;;;;;;5.40;1.40;;;19.60;37.70;;;;;;5068344;28;20116;-79
2022/04/08 10:02:59;;;;;;;5.20;1.20;;;20.10;37.20;;;;;;5052342;28;20047;-79
2022/04/08 10:05:26;;;;;;;7.15;1.50;;;21.20;36.50;;;;;;5053900;28;20132;-78
2022/04/08 10:07:55;;;;;;;4.38;1.20;;;22.10;34.10;;;;;;5073205;28;20039;-79
2022/04/08 10:10:48;;;;;;;3.47;1.10;;;22.90;33.00;;;;;;5054389;28;20067;-79
2022/04/08 10:13:54;;;;;;;3.95;0.90;;;23.10;32.70;;;;;;5071030;28;20447;-79
2022/04/08 10:16:23;;;;;;;5.70;1.45;;;23.30;32.70;;;;;;5053988;28;20036;-79
2022/04/08 10:18:52;;;;;;;3.65;1.42;;;23.60;32.00;;;;;;5054899;28;20033;-80
2022/04/08 10:21:19;;;;;;;5.85;1.05;;;23.80;30.30;;;;;;5071193;28;20062;-79
2022/04/08 10:24:09;;;;;;;4.00;1.05;;;23.70;31.40;;;;;;5073368;28;20100;-79
2022/04/08 10:26:35;;;;;;;3.13;1.10;;;23.60;32.00;;;;;;5056567;28;20033;-79
2022/04/08 10:29:10;;;;;;;4.22;1.40;;;23.40;30.60;;;;;;5057283;28;20078;-79
2022/04/08 10:31:37;;;;;;;5.55;0.90;;;22.90;31.00;;;;;;5073484;28;20115;-79
2022/04/08 10:34:03;;;;;;;;;;;22.80;32.10;;;;;;5057401;28;20127;-79
2022/04/08 10:36:47;;;;;;;2.88;1.00;;;22.90;32.40;;;;;;5073657;28;19920;-79
2022/04/08 10:39:32;;;;;;;4.15;1.30;;;22.60;32.40;;;;;;5073477;28;20060;-78
2022/04/08 10:42:00;;;;;;;3.60;1.20;;;22.30;32.80;;;;;;5056431;28;20044;-78
2022/04/08 10:44:45;;;;;;;8.55;1.55;;;22.00;33.30;;;;;;5056834;28;20059;-77
2022/04/08 10:47:30;;;;;;;6.38;1.27;;;22.10;33.90;;;;;;5073235;28;20075;-79
2022/04/08 10:50:07;;;;;;;6.72;1.50;;;22.20;34.20;;;;;;5057187;28;20028;-78
2022/04/08 10:52:41;;;;;;;6.05;1.42;;;22.10;33.90;;;;;;5073650;28;20036;-79
2022/04/08 10:55:10;;;;;;;5.43;1.38;;;22.00;33.90;;;;;;5074345;28;20032;-79
2022/04/08 10:57:40;;;;;;;4.35;1.23;;;22.00;34.10;;;;;;5075083;28;20040;-78
2022/04/08 11:00:25;;;;;;;3.67;1.50;;;22.00;34.40;;;;;;5072168;28;20125;-79
2022/04/08 11:03:10;;;;;;;4.93;1.92;;;22.30;33.70;;;;;;5073314;28;20117;-79
2022/04/08 11:05:39;;;;;;;6.82;1.33;;;23.00;33.10;;;;;;5073881;28;20029;-78
2022/04/08 11:08:25;;;;;;;3.83;1.00;;;23.70;31.50;;;;;;5056558;28;20370;-79
2022/04/08 11:11:11;;;;;;;7.20;1.63;;;24.30;30.00;;;;;;5072837;28;20033;-79
2022/04/08 11:13:41;;;;;;;7.07;1.30;;;23.90;30.20;;;;;;5056433;28;20035;-79
2022/04/08 11:16:08;;;;;;;5.65;1.45;;;23.30;31.40;;;;;;5071945;28;20039;-79
2022/04/08 11:18:34;;;;;;;7.25;1.30;;;23.70;32.20;;;;;;5073023;28;20029;-78
2022/04/08 11:21:01;;;;;;;3.90;1.30;;;25.10;30.00;;;;;;5055822;28;20092;-80
2022/04/08 11:26:17;;;;;;;5.03;1.30;;;24.60;30.10;;;;;;5048061;28;20033;-79
2022/04/08 11:28:43;;;;;;;5.03;1.40;;;24.10;30.50;;;;;;5036262;28;20140;-79
2022/04/08 11:31:10;;;;;;;4.88;1.30;;;23.70;31.10;;;;;;5028566;28;20519;-79
2022/04/08 11:33:36;;;;;;;5.60;1.05;;;23.40;31.60;;;;;;5066244;28;20086;-79
2022/04/08 11:36:04;;;;;;;3.92;1.30;;;23.50;32.00;;;;;;5049253;28;20583;-79
2022/04/08 11:38:33;;;;;;;3.85;1.23;;;24.30;31.40;;;;;;5051094;28;20261;-79
2022/04/08 11:41:01;;;;;;;3.70;1.30;;;24.50;30.80;;;;;;5070297;28;20083;-78
2022/04/08 11:43:27;;;;;;;8.90;1.50;;;24.10;30.10;;;;;;5069659;28;20037;-79
2022/04/08 11:45:53;;;;;;;3.67;1.40;;;23.50;31.10;;;;;;5069558;28;20497;-79
2022/04/08 11:48:23;;;;;;;3.90;1.30;;;23.10;31.90;;;;;;5059837;28;20029;-78
2022/04/08 11:50:51;;;;;;;3.75;1.55;;;22.60;33.10;;;;;;5033633;28;20544;-79
2022/04/08 11:53:19;;;;;;;4.78;1.13;;;22.40;33.40;;;;;;5049932;28;20068;-78
2022/04/08 11:56:04;;;;;;;3.92;1.15;;;22.40;33.50;;;;;;5049097;28;20029;-79
2022/04/08 11:58:31;;;;;;;5.85;1.70;;;22.50;33.90;;;;;;5049562;28;20090;-78
2022/04/08 12:01:01;;;;;;;8.35;1.50;;;22.50;33.90;;;;;;5048986;28;20498;-78
2022/04/08 12:03:50;;;;;;;4.22;1.00;;;22.40;32.90;;;;;;5066054;28;20350;-79
2022/04/08 12:06:18;;;;;;;3.72;1.30;;;22.50;32.90;;;;;;5070844;28;20032;-79
2022/04/08 12:08:46;;;;;;;7.72;1.52;;;22.30;32.70;;;;;;5070179;28;20040;-78
2022/04/08 12:11:13;;;;;;;4.85;1.33;;;22.30;33.20;;;;;;5071555;28;20044;-79
2022/04/08 12:13:41;;;;;;;4.70;1.40;;;22.80;33.50;;;;;;5069570;28;20161;-79
2022/04/08 12:16:30;;;;;;;4.22;1.38;;;26.20;29.20;;;;;;5070334;28;20044;-79
2022/04/08 12:18:56;;;;;;;4.38;1.45;;;26.10;27.90;;;;;;5052676;28;20040;-80
2022/04/08 12:21:43;;;;;;;4.03;1.20;;;28.80;24.80;;;;;;5068273;28;20048;-79
2022/04/08 12:24:10;;;;;;;5.88;1.30;;;31.10;24.20;;;;;;5052561;28;20040;-80
2022/04/08 12:26:39;;;;;;;2.92;1.10;;;32.40;21.20;;;;;;5052829;28;20447;-81
2022/04/08 12:29:24;;;;;;;3.80;1.40;;;33.50;20.30;;;;;;5070478;28;20561;-79
2022/04/08 12:31:57;;;;;;;3.22;1.42;;;34.20;19.90;;;;;;5069047;28;20048;-79
2022/04/08 12:34:23;;;;;;;4.88;1.17;;;34.30;19.00;;;;;;5070726;28;20028;-79
2022/04/08 12:36:50;;;;;;;4.50;1.40;;;33.80;19.40;;;;;;5069015;28;20032;-80
2022/04/08 12:39:17;;;;;;;4.82;1.75;;;31.50;20.90;;;;;;5070023;28;20029;-80
2022/04/08 12:41:46;;;;;;;3.80;1.20;;;32.00;21.20;;;;;;5049880;28;20071;-80
2022/04/08 12:44:13;;;;;;;4.63;1.63;;;33.90;19.10;;;;;;5069386;28;20316;-79
2022/04/08 12:46:40;;;;;;;3.03;1.17;;;34.60;18.30;;;;;;5051822;28;20132;-79
2022/04/08 12:49:07;;;;;;;5.47;1.67;;;33.60;18.80;;;;;;5069211;28;20036;-79
2022/04/08 12:51:34;;;;;;;3.80;1.10;;;34.70;18.40;;;;;;5070611;28;20052;-78
2022/04/08 12:54:00;;;;;;;2.47;1.00;;;36.00;17.40;;;;;;5070540;28;20120;-79
2022/04/08 12:56:27;;;;;;;3.95;1.20;;;36.40;15.70;;;;;;5068554;28;20397;-78
2022/04/08 12:59:14;;;;;;;6.68;1.35;;;35.40;16.00;;;;;;5071384;28;20044;-80
2022/04/08 13:01:41;;;;;;;3.58;1.10;;;32.10;18.80;;;;;;5069916;28;20041;-79
2022/04/08 13:04:07;;;;;;;3.50;0.88;;;30.10;20.80;;;;;;5054525;28;20032;-80
2022/04/08 13:06:33;;;;;;;3.50;0.85;;;30.50;19.80;;;;;;5050702;28;20048;-79
2022/04/08 13:09:00;;;;;;;4.35;0.90;;;30.70;21.00;;;;;;5068069;28;20029;-79
2022/04/08 13:11:26;;;;;;;5.30;1.20;;;30.70;20.30;;;;;;5050712;28;20120;-79
2022/04/08 13:13:53;;;;;;;2.72;0.90;;;29.50;21.50;;;;;;5003337;28;20067;-80
2022/04/08 13:16:19;;;;;;;3.20;0.95;;;29.10;22.40;;;;;;5049348;28;20048;-79
2022/04/08 13:18:46;;;;;;;4.82;1.35;;;28.60;22.10;;;;;;5050580;28;20442;-79
2022/04/08 13:21:12;;;;;;;5.32;1.10;;;27.80;23.10;;;;;;5034757;28;20039;-79
2022/04/08 13:23:38;;;;;;;8.35;1.20;;;27.70;23.60;;;;;;5067981;28;20435;-78
2022/04/08 13:26:05;;;;;;;4.75;1.00;;;27.30;24.20;;;;;;5050739;28;20078;-79
2022/04/08 13:28:31;;;;;;;5.38;1.10;;;27.80;23.50;;;;;;5068615;28;20367;-79